Time;durP1;ratioP1;P1;durP2;ratioP2;P2;SDS_P1;SDS_P2;PMS_P1;PMS_P2;Temp;Humidity;BMP_temperature;BMP_pressure;BME280_temperature;BME280_humidity;BME280_pressure;Samples;Min_cycle;Max_cycle;Signal;HPM_P1;HPM_P2
2022/03/05 00:02:08;;;;;;;8.43;6.68;;;;;;;;;;4930364;29;20052;-81
2022/03/05 00:04:34;;;;;;;7.25;6.55;;;;;;;;;;4931037;29;20054;-81
2022/03/05 00:07:00;;;;;;;9.68;6.82;;;;;;;;;;4930545;29;20490;-81
2022/03/05 00:09:26;;;;;;;9.00;6.50;;;;;;;;;;4931475;29;20051;-81
2022/03/05 00:11:52;;;;;;;7.97;6.53;;;;;;;;;;4933344;29;20040;-81
2022/03/05 00:14:18;;;;;;;7.35;6.55;;;;;;;;;;4932372;29;20451;-81
2022/03/05 00:16:44;;;;;;;7.72;6.90;;;;;;;;;;4925335;29;20134;-81
2022/03/05 00:19:10;;;;;;;7.68;6.45;;;;;;;;;;4930523;29;20134;-81
2022/03/05 00:21:36;;;;;;;8.25;6.90;;;;;;;;;;4929257;29;20080;-81
2022/03/05 00:24:02;;;;;;;9.80;7.47;;;;;;;;;;4932219;29;20086;-81
2022/03/05 00:26:28;;;;;;;8.10;6.97;;;;;;;;;;4929870;29;20047;-81
2022/03/05 00:28:54;;;;;;;8.43;7.00;;;;;;;;;;4929339;29;20416;-81
2022/03/05 00:31:21;;;;;;;8.10;6.80;;;;;;;;;;4929818;29;20102;-81
2022/03/05 00:33:47;;;;;;;8.95;7.70;;;;;;;;;;4928612;29;20052;-81
2022/03/05 00:36:13;;;;;;;9.50;7.00;;;;;;;;;;4931225;29;20051;-81
2022/03/05 00:38:39;;;;;;;8.48;7.10;;;;;;;;;;4931252;29;20142;-82
2022/03/05 00:41:05;;;;;;;9.63;7.38;;;;;;;;;;4908801;29;20095;-81
2022/03/05 00:43:31;;;;;;;8.10;6.95;;;;;;;;;;4929255;29;20059;-81
2022/03/05 00:45:57;;;;;;;9.45;7.53;;;;;;;;;;4929608;29;20050;-81
2022/03/05 00:48:23;;;;;;;8.48;7.15;;;;;;;;;;4930350;29;20051;-81
2022/03/05 00:50:49;;;;;;;9.70;7.22;;;;;;;;;;4931473;29;20039;-81
2022/03/05 00:53:17;;;;;;;8.70;7.20;;;;;;;;;;4932323;29;20161;-81
2022/03/05 00:55:43;;;;;;;9.10;7.20;;;;;;;;;;4934795;29;20086;-81
2022/03/05 00:58:09;;;;;;;9.60;6.97;;;;;;;;;;4933830;29;20054;-81
2022/03/05 01:00:35;;;;;;;8.90;6.88;;;;;;;;;;4932810;29;20051;-81
2022/03/05 01:03:02;;;;;;;9.25;6.85;;;;;;;;;;4931499;29;20059;-81
2022/03/05 01:05:28;;;;;;;8.98;7.45;;;;;;;;;;4932682;29;20055;-81
2022/03/05 01:07:54;;;;;;;7.88;6.85;;;;;;;;;;4929253;29;20130;-81
2022/03/05 01:10:20;;;;;;;8.88;6.97;;;;;;;;;;4932204;29;20131;-81
2022/03/05 01:12:46;;;;;;;8.88;7.53;;;;;;;;;;4933837;29;20083;-81
2022/03/05 01:15:12;;;;;;;8.57;7.10;;;;;;;;;;4933328;29;20051;-81
2022/03/05 01:17:38;;;;;;;9.90;7.80;;;;;;;;;;4930817;29;20055;-81
2022/03/05 01:20:05;;;;;;;10.07;8.18;;;;;;;;;;4935299;29;20122;-82
2022/03/05 01:22:31;;;;;;;11.15;7.80;;;;;;;;;;4925151;29;20057;-81
2022/03/05 01:24:57;;;;;;;8.75;7.15;;;;;;;;;;4932059;29;20576;-81
2022/03/05 01:27:23;;;;;;;9.40;7.95;;;;;;;;;;4934569;29;20130;-81
2022/03/05 01:29:52;;;;;;;10.05;7.78;;;;;;;;;;4933270;29;20142;-81
2022/03/05 01:32:18;;;;;;;9.52;7.43;;;;;;;;;;4933675;29;20047;-80
2022/03/05 01:34:44;;;;;;;8.27;6.90;;;;;;;;;;4932798;29;20044;-80
2022/03/05 01:37:10;;;;;;;9.63;7.68;;;;;;;;;;4934222;29;20054;-81
2022/03/05 01:39:37;;;;;;;9.27;7.38;;;;;;;;;;4934150;29;20515;-81
2022/03/05 01:42:04;;;;;;;10.30;8.00;;;;;;;;;;4930743;29;20090;-81
2022/03/05 01:44:31;;;;;;;9.90;7.93;;;;;;;;;;4917036;29;20059;-81
2022/03/05 01:47:01;;;;;;;9.35;7.60;;;;;;;;;;4930786;29;20428;-81
2022/03/05 01:49:27;;;;;;;9.38;7.65;;;;;;;;;;4932521;29;20127;-81
2022/03/05 01:51:54;;;;;;;8.25;7.15;;;;;;;;;;4933116;29;20478;-81
2022/03/05 01:54:20;;;;;;;9.82;7.80;;;;;;;;;;4932827;29;20056;-81
2022/03/05 01:56:46;;;;;;;10.23;7.60;;;;;;;;;;4934048;29;20048;-81
2022/03/05 01:59:12;;;;;;;9.55;7.32;;;;;;;;;;4932339;29;20484;-81
2022/03/05 02:01:38;;;;;;;9.07;7.60;;;;;;;;;;4933328;29;20055;-81
2022/03/05 02:04:05;;;;;;;10.57;8.55;;;;;;;;;;4933304;29;20134;-80
2022/03/05 02:06:31;;;;;;;10.00;7.95;;;;;;;;;;4934665;29;20035;-80
2022/03/05 02:08:57;;;;;;;10.25;8.00;;;;;;;;;;4931521;29;20051;-80
2022/03/05 02:11:24;;;;;;;10.18;7.80;;;;;;;;;;4934409;29;20052;-80
2022/03/05 02:13:50;;;;;;;10.27;8.30;;;;;;;;;;4930809;29;20040;-80
2022/03/05 02:16:16;;;;;;;9.13;7.75;;;;;;;;;;4931852;29;20047;-80
2022/03/05 02:18:46;;;;;;;9.48;8.18;;;;;;;;;;4932237;29;20475;-80
2022/03/05 02:21:12;;;;;;;9.05;7.47;;;;;;;;;;4931618;29;20055;-80
2022/03/05 02:23:38;;;;;;;10.48;7.30;;;;;;;;;;4931927;29;20050;-81
2022/03/05 02:26:05;;;;;;;10.68;8.10;;;;;;;;;;4932975;29;20131;-81
2022/03/05 02:28:33;;;;;;;8.52;7.35;;;;;;;;;;4933153;29;20185;-81
2022/03/05 02:30:59;;;;;;;9.27;7.45;;;;;;;;;;4930878;29;20052;-81
2022/03/05 02:33:25;;;;;;;9.43;8.15;;;;;;;;;;4931056;29;20051;-81
2022/03/05 02:35:55;;;;;;;9.20;7.93;;;;;;;;;;4926967;29;20516;-81
2022/03/05 02:38:22;;;;;;;10.30;8.30;;;;;;;;;;4932019;29;20044;-81
2022/03/05 02:40:49;;;;;;;13.20;8.40;;;;;;;;;;4931182;29;20056;-80
2022/03/05 02:43:15;;;;;;;9.57;7.80;;;;;;;;;;4932609;29;20119;-80
2022/03/05 02:45:42;;;;;;;9.57;8.07;;;;;;;;;;4932890;29;20054;-80
2022/03/05 02:48:09;;;;;;;9.32;7.80;;;;;;;;;;4931656;29;20162;-81
2022/03/05 02:50:35;;;;;;;9.38;7.72;;;;;;;;;;4932760;29;20062;-81
2022/03/05 02:53:02;;;;;;;11.35;8.95;;;;;;;;;;4932987;29;20044;-82
2022/03/05 02:55:28;;;;;;;10.35;8.00;;;;;;;;;;4926582;29;20040;-82
2022/03/05 02:57:55;;;;;;;10.05;8.32;;;;;;;;;;4932508;29;20138;-81
2022/03/05 03:00:21;;;;;;;9.93;7.97;;;;;;;;;;4932752;29;20122;-81
2022/03/05 03:02:50;;;;;;;10.98;7.80;;;;;;;;;;4924978;29;20071;-81
2022/03/05 03:05:17;;;;;;;9.73;7.53;;;;;;;;;;4931414;29;20082;-81
2022/03/05 03:07:43;;;;;;;11.13;7.68;;;;;;;;;;4931890;29;20500;-82
2022/03/05 03:10:10;;;;;;;9.73;8.25;;;;;;;;;;4931056;29;20055;-82
2022/03/05 03:12:36;;;;;;;9.68;7.70;;;;;;;;;;4946758;29;20055;-82
2022/03/05 03:15:06;;;;;;;10.77;8.52;;;;;;;;;;4930545;29;20060;-82
2022/03/05 03:17:45;;;;;;;11.20;8.13;;;;;;;;;;4930344;29;20500;-82
2022/03/05 03:20:13;;;;;;;10.50;8.23;;;;;;;;;;4932196;29;20075;-82
2022/03/05 03:22:39;;;;;;;10.73;8.32;;;;;;;;;;4931108;29;20135;-82
2022/03/05 03:25:06;;;;;;;9.38;7.32;;;;;;;;;;4933457;29;20051;-82
2022/03/05 03:27:32;;;;;;;10.13;8.35;;;;;;;;;;4933898;29;20415;-82
2022/03/05 03:29:58;;;;;;;9.90;8.20;;;;;;;;;;4932589;29;20126;-82
2022/03/05 03:32:24;;;;;;;10.65;7.63;;;;;;;;;;4931572;29;20051;-82
2022/03/05 03:34:53;;;;;;;9.57;7.57;;;;;;;;;;4933668;29;20042;-82
2022/03/05 03:37:19;;;;;;;10.90;8.32;;;;;;;;;;4924836;29;20047;-82
2022/03/05 03:39:45;;;;;;;10.30;8.20;;;;;;;;;;4932152;29;20056;-82
2022/03/05 03:42:11;;;;;;;10.63;8.35;;;;;;;;;;4932281;29;20414;-82
2022/03/05 03:44:37;;;;;;;11.23;8.10;;;;;;;;;;4931319;29;20134;-81
2022/03/05 03:47:03;;;;;;;10.57;8.73;;;;;;;;;;4929867;29;20051;-81
2022/03/05 03:49:29;;;;;;;10.18;8.00;;;;;;;;;;4927878;29;20051;-82
2022/03/05 03:51:55;;;;;;;9.38;7.72;;;;;;;;;;4931546;29;20544;-82
2022/03/05 03:54:21;;;;;;;10.10;7.53;;;;;;;;;;4931348;29;20181;-81
2022/03/05 03:56:48;;;;;;;10.68;8.18;;;;;;;;;;4928879;29;20044;-81
2022/03/05 03:59:14;;;;;;;9.93;7.63;;;;;;;;;;4931327;29;20091;-81
2022/03/05 04:01:40;;;;;;;11.20;8.43;;;;;;;;;;4931599;29;20461;-82
2022/03/05 04:04:06;;;;;;;9.38;7.88;;;;;;;;;;4931043;29;20052;-81
2022/03/05 04:09:17;;;;;;;9.27;7.35;;;;;;;;;;4923749;29;20060;-81
2022/03/05 04:11:43;;;;;;;9.50;8.02;;;;;;;;;;4929931;29;20095;-81
2022/03/05 04:14:09;;;;;;;9.60;7.88;;;;;;;;;;4931268;29;20071;-81
2022/03/05 04:16:35;;;;;;;10.52;8.38;;;;;;;;;;4931621;29;20129;-81
2022/03/05 04:19:02;;;;;;;10.35;7.85;;;;;;;;;;4931916;29;20039;-82
2022/03/05 04:21:28;;;;;;;9.43;7.05;;;;;;;;;;4932291;29;20496;-82
2022/03/05 04:23:54;;;;;;;10.18;8.35;;;;;;;;;;4930819;29;20532;-81
2022/03/05 04:26:20;;;;;;;10.45;7.82;;;;;;;;;;4927009;29;20048;-81
2022/03/05 04:28:46;;;;;;;10.15;8.07;;;;;;;;;;4933339;29;20053;-81
2022/03/05 04:31:12;;;;;;;10.23;8.07;;;;;;;;;;4935907;29;20091;-82
2022/03/05 04:33:38;;;;;;;8.82;7.20;;;;;;;;;;4934849;29;20451;-81
2022/03/05 04:36:05;;;;;;;10.23;8.10;;;;;;;;;;4929936;29;20513;-82
2022/03/05 04:38:32;;;;;;;9.57;7.50;;;;;;;;;;4935331;29;20122;-82
2022/03/05 04:40:58;;;;;;;9.32;7.57;;;;;;;;;;4933295;29;20054;-82
2022/03/05 04:43:24;;;;;;;10.70;7.07;;;;;;;;;;4932398;29;20051;-81
2022/03/05 04:45:50;;;;;;;9.60;7.43;;;;;;;;;;4915940;29;20369;-81
2022/03/05 04:48:16;;;;;;;9.57;7.70;;;;;;;;;;4933796;29;20403;-82
2022/03/05 04:50:45;;;;;;;10.13;6.75;;;;;;;;;;4935425;29;20103;-81
2022/03/05 04:53:11;;;;;;;9.65;6.82;;;;;;;;;;4932866;29;20122;-82
2022/03/05 04:55:37;;;;;;;8.38;6.50;;;;;;;;;;4933093;29;20039;-81
2022/03/05 04:58:03;;;;;;;9.02;6.65;;;;;;;;;;4934279;29;20047;-81
2022/03/05 05:00:30;;;;;;;8.77;6.90;;;;;;;;;;4932380;29;20048;-81
2022/03/05 05:02:56;;;;;;;9.43;7.28;;;;;;;;;;4932350;29;20039;-81
2022/03/05 05:05:22;;;;;;;9.50;7.18;;;;;;;;;;4934207;29;20632;-81
2022/03/05 05:07:48;;;;;;;9.32;6.57;;;;;;;;;;4933076;29;20377;-81
2022/03/05 05:10:14;;;;;;;9.15;6.47;;;;;;;;;;4934017;29;20055;-81
2022/03/05 05:12:40;;;;;;;8.27;6.18;;;;;;;;;;4934881;29;20044;-81
2022/03/05 05:15:06;;;;;;;8.13;6.35;;;;;;;;;;4933790;29;20051;-82
2022/03/05 05:17:36;;;;;;;8.00;6.65;;;;;;;;;;4935135;29;20055;-82
2022/03/05 05:20:02;;;;;;;8.27;6.38;;;;;;;;;;4933800;29;20138;-82
2022/03/05 05:22:30;;;;;;;9.00;6.47;;;;;;;;;;4932801;29;20131;-82
2022/03/05 05:24:56;;;;;;;9.27;6.70;;;;;;;;;;4925154;29;20056;-82
2022/03/05 05:27:22;;;;;;;8.75;6.20;;;;;;;;;;4934857;29;20368;-82
2022/03/05 05:29:48;;;;;;;9.32;6.13;;;;;;;;;;4933233;29;20083;-81
2022/03/05 05:32:14;;;;;;;9.63;7.10;;;;;;;;;;4935544;29;20114;-81
2022/03/05 05:34:41;;;;;;;8.35;6.43;;;;;;;;;;4933274;29;20142;-81
2022/03/05 05:37:07;;;;;;;9.63;6.57;;;;;;;;;;4932516;29;20055;-82
2022/03/05 05:39:33;;;;;;;9.15;7.03;;;;;;;;;;4927765;29;20154;-81
2022/03/05 05:41:59;;;;;;;9.73;6.90;;;;;;;;;;4934285;29;20052;-81
2022/03/05 05:44:25;;;;;;;9.35;6.65;;;;;;;;;;4932221;29;20054;-81
2022/03/05 05:46:52;;;;;;;8.63;6.20;;;;;;;;;;4930892;29;20091;-81
2022/03/05 05:49:18;;;;;;;9.23;6.43;;;;;;;;;;4929062;29;20043;-81
2022/03/05 05:51:44;;;;;;;8.98;6.47;;;;;;;;;;4924369;29;20049;-81
2022/03/05 05:54:10;;;;;;;9.15;6.80;;;;;;;;;;4931193;29;20052;-82
2022/03/05 05:56:36;;;;;;;10.32;7.00;;;;;;;;;;4931687;29;20047;-81
2022/03/05 05:59:04;;;;;;;9.50;6.80;;;;;;;;;;4931798;29;20552;-82
2022/03/05 06:01:30;;;;;;;8.93;6.07;;;;;;;;;;4933475;29;20043;-81
2022/03/05 06:03:56;;;;;;;9.23;6.38;;;;;;;;;;4932560;29;20066;-81
2022/03/05 06:06:25;;;;;;;9.25;6.97;;;;;;;;;;4933019;29;20118;-81
2022/03/05 06:08:51;;;;;;;8.40;6.43;;;;;;;;;;4929906;29;20183;-81
2022/03/05 06:11:17;;;;;;;11.18;6.90;;;;;;;;;;4932463;29;20055;-82
2022/03/05 06:13:43;;;;;;;10.27;7.00;;;;;;;;;;4931265;29;20122;-81
2022/03/05 06:16:09;;;;;;;9.88;7.20;;;;;;;;;;4930176;29;20400;-82
2022/03/05 06:18:35;;;;;;;9.70;6.53;;;;;;;;;;4929994;29;20051;-82
2022/03/05 06:21:01;;;;;;;11.30;7.43;;;;;;;;;;4932318;29;20056;-82
2022/03/05 06:23:29;;;;;;;9.20;6.90;;;;;;;;;;4932419;29;20070;-82
2022/03/05 06:25:55;;;;;;;9.10;7.15;;;;;;;;;;4934089;29;20047;-82
2022/03/05 06:28:21;;;;;;;10.07;7.70;;;;;;;;;;4933989;29;20040;-81
2022/03/05 06:30:47;;;;;;;12.18;7.97;;;;;;;;;;4933086;29;20044;-81
2022/03/05 06:33:13;;;;;;;9.48;7.60;;;;;;;;;;4931129;29;20407;-81
2022/03/05 06:35:39;;;;;;;11.45;7.25;;;;;;;;;;4930359;29;20126;-81
2022/03/05 06:38:05;;;;;;;9.88;6.93;;;;;;;;;;4929532;29;20522;-81
2022/03/05 06:40:31;;;;;;;11.60;7.53;;;;;;;;;;4933970;28;20048;-81
2022/03/05 06:42:57;;;;;;;12.18;8.48;;;;;;;;;;4931059;29;20079;-81
2022/03/05 06:45:23;;;;;;;11.48;8.35;;;;;;;;;;4933758;29;20056;-81
2022/03/05 06:47:49;;;;;;;10.55;7.57;;;;;;;;;;4931413;29;20528;-81
2022/03/05 06:50:15;;;;;;;8.90;6.93;;;;;;;;;;4933956;29;20097;-81
2022/03/05 06:52:41;;;;;;;11.05;7.75;;;;;;;;;;4931940;29;20087;-81
2022/03/05 06:55:08;;;;;;;10.15;7.70;;;;;;;;;;4931801;29;20071;-81
2022/03/05 06:57:34;;;;;;;10.95;7.75;;;;;;;;;;4933983;29;20054;-81
2022/03/05 07:00:00;;;;;;;10.13;7.47;;;;;;;;;;4930879;29;20131;-82
2022/03/05 07:02:26;;;;;;;10.10;7.63;;;;;;;;;;4931976;29;20135;-81
2022/03/05 07:04:52;;;;;;;10.45;7.32;;;;;;;;;;4932491;29;20466;-81
2022/03/05 07:07:18;;;;;;;10.50;7.80;;;;;;;;;;4930678;29;20118;-81
2022/03/05 07:09:44;;;;;;;10.57;7.65;;;;;;;;;;4932783;29;20063;-80
2022/03/05 07:12:10;;;;;;;10.07;7.00;;;;;;;;;;4931973;29;20570;-80
2022/03/05 07:14:36;;;;;;;9.90;7.25;;;;;;;;;;4931146;29;20044;-80
2022/03/05 07:17:04;;;;;;;11.73;7.68;;;;;;;;;;4931898;29;20051;-80
2022/03/05 07:19:30;;;;;;;9.85;7.43;;;;;;;;;;4933695;29;20067;-80
2022/03/05 07:21:56;;;;;;;10.02;7.20;;;;;;;;;;4932201;29;20043;-80
2022/03/05 07:24:23;;;;;;;9.48;6.88;;;;;;;;;;4931988;29;20481;-80
2022/03/05 07:26:52;;;;;;;9.75;7.43;;;;;;;;;;4932455;29;20492;-79
2022/03/05 07:29:18;;;;;;;10.98;7.35;;;;;;;;;;4930872;29;20043;-80
2022/03/05 07:31:45;;;;;;;11.30;7.95;;;;;;;;;;4926384;29;20058;-79
2022/03/05 07:34:11;;;;;;;10.40;7.35;;;;;;;;;;4933449;29;20135;-80
2022/03/05 07:36:37;;;;;;;9.88;6.50;;;;;;;;;;4930379;29;20051;-80
2022/03/05 07:39:04;;;;;;;9.25;6.72;;;;;;;;;;4932438;29;20063;-80
2022/03/05 07:41:30;;;;;;;9.27;7.30;;;;;;;;;;4932489;29;20059;-80
2022/03/05 07:43:56;;;;;;;9.70;7.50;;;;;;;;;;4929673;29;20043;-80
2022/03/05 07:46:22;;;;;;;9.13;6.72;;;;;;;;;;4931307;29;20471;-79
2022/03/05 07:48:48;;;;;;;10.32;7.53;;;;;;;;;;4929329;29;20137;-79
2022/03/05 07:51:14;;;;;;;10.52;7.38;;;;;;;;;;4930522;29;20488;-80
2022/03/05 07:53:40;;;;;;;9.20;6.68;;;;;;;;;;4931741;29;20046;-80
2022/03/05 07:56:06;;;;;;;11.65;8.73;;;;;;;;;;4927736;29;20055;-80
2022/03/05 07:58:32;;;;;;;11.23;7.47;;;;;;;;;;4931651;29;20058;-80
2022/03/05 08:00:58;;;;;;;8.20;6.32;;;;;;;;;;4932045;29;20123;-79
2022/03/05 08:03:27;;;;;;;10.27;7.18;;;;;;;;;;4929279;29;20083;-79
2022/03/05 08:05:53;;;;;;;8.32;6.55;;;;;;;;;;4934776;29;20039;-80
2022/03/05 08:08:19;;;;;;;9.30;7.38;;;;;;;;;;4936793;29;20110;-80
2022/03/05 08:10:45;;;;;;;9.43;7.00;;;;;;;;;;4935143;29;20146;-79
2022/03/05 08:13:12;;;;;;;9.07;6.80;;;;;;;;;;4936318;29;20060;-79
2022/03/05 08:15:39;;;;;;;9.02;6.93;;;;;;;;;;4936398;29;20036;-80
2022/03/05 08:18:05;;;;;;;8.80;6.70;;;;;;;;;;4932719;29;20487;-80
2022/03/05 08:20:32;;;;;;;10.27;6.97;;;;;;;;;;4933383;29;21558;-80
2022/03/05 08:22:59;;;;;;;8.18;6.32;;;;;;;;;;4925038;29;20096;-80
2022/03/05 08:25:25;;;;;;;9.85;7.00;;;;;;;;;;4934762;29;20047;-80
2022/03/05 08:27:51;;;;;;;10.50;7.55;;;;;;;;;;4931393;29;20050;-79
2022/03/05 08:30:18;;;;;;;8.00;5.95;;;;;;;;;;4935492;29;20134;-79
2022/03/05 08:32:45;;;;;;;9.02;6.97;;;;;;;;;;4929909;29;20047;-79
2022/03/05 08:35:11;;;;;;;7.65;6.20;;;;;;;;;;4932999;29;20052;-80
2022/03/05 08:37:38;;;;;;;8.90;7.13;;;;;;;;;;4935613;29;20047;-80
2022/03/05 08:40:05;;;;;;;9.20;6.55;;;;;;;;;;4934245;29;20051;-80
2022/03/05 08:42:31;;;;;;;8.77;6.35;;;;;;;;;;4935493;29;20043;-80
2022/03/05 08:44:58;;;;;;;9.20;7.63;;;;;;;;;;4931566;29;20080;-79
2022/03/05 08:47:24;;;;;;;9.98;6.90;;;;;;;;;;4932326;29;20515;-79
2022/03/05 08:49:51;;;;;;;9.18;6.53;;;;;;;;;;4935197;29;20055;-80
2022/03/05 08:52:17;;;;;;;9.85;7.35;;;;;;;;;;4929211;29;20043;-79
2022/03/05 08:54:43;;;;;;;8.77;7.13;;;;;;;;;;4936492;29;20070;-80
2022/03/05 08:57:11;;;;;;;8.77;7.00;;;;;;;;;;4929498;29;20126;-80
2022/03/05 08:59:37;;;;;;;8.43;6.50;;;;;;;;;;4933199;29;20505;-80
2022/03/05 09:02:04;;;;;;;10.75;7.47;;;;;;;;;;4934494;29;20176;-80
2022/03/05 09:04:30;;;;;;;9.98;7.30;;;;;;;;;;4933222;29;20087;-80
2022/03/05 09:06:56;;;;;;;8.93;7.28;;;;;;;;;;4932716;29;20036;-81
2022/03/05 09:09:22;;;;;;;9.02;7.18;;;;;;;;;;4933923;29;20051;-80
2022/03/05 09:11:48;;;;;;;10.23;7.53;;;;;;;;;;4935126;29;20044;-80
2022/03/05 09:14:14;;;;;;;10.10;7.05;;;;;;;;;;4931618;29;20424;-80
2022/03/05 09:16:41;;;;;;;11.57;8.88;;;;;;;;;;4931856;29;20054;-80
2022/03/05 09:19:07;;;;;;;11.40;7.78;;;;;;;;;;4930460;29;20044;-80
2022/03/05 09:21:34;;;;;;;11.43;8.15;;;;;;;;;;4932915;29;20536;-80
2022/03/05 09:24:00;;;;;;;12.18;8.77;;;;;;;;;;4933566;29;20099;-79
2022/03/05 09:26:26;;;;;;;11.82;9.30;;;;;;;;;;4936547;29;20115;-79
2022/03/05 09:28:52;;;;;;;11.10;8.70;;;;;;;;;;4933512;29;20480;-79
2022/03/05 09:31:18;;;;;;;11.98;8.82;;;;;;;;;;4932709;29;20055;-78
2022/03/05 09:33:47;;;;;;;12.45;8.90;;;;;;;;;;4935895;29;20095;-78
2022/03/05 09:36:13;;;;;;;12.13;8.48;;;;;;;;;;4942046;29;20086;-78
2022/03/05 09:38:41;;;;;;;13.07;8.40;;;;;;;;;;4932785;29;20464;-79
2022/03/05 09:41:08;;;;;;;10.43;7.82;;;;;;;;;;4934735;29;20055;-79
2022/03/05 09:43:36;;;;;;;10.70;7.72;;;;;;;;;;4936341;28;20050;-78
2022/03/05 09:46:02;;;;;;;12.27;8.25;;;;;;;;;;4934214;29;20835;-78
2022/03/05 09:48:29;;;;;;;12.57;8.93;;;;;;;;;;4933713;29;20047;-79
2022/03/05 09:50:55;;;;;;;12.48;8.73;;;;;;;;;;4934497;29;20126;-80
2022/03/05 09:53:21;;;;;;;12.18;8.85;;;;;;;;;;4934926;29;20044;-79
2022/03/05 09:55:50;;;;;;;11.63;9.13;;;;;;;;;;4934052;29;20116;-78
2022/03/05 09:58:17;;;;;;;11.70;8.88;;;;;;;;;;4934105;29;20147;-78
2022/03/05 10:00:44;;;;;;;11.15;8.32;;;;;;;;;;4933789;29;20052;-80
2022/03/05 10:03:12;;;;;;;12.52;9.15;;;;;;;;;;4930948;29;20066;-78
2022/03/05 10:05:41;;;;;;;12.80;8.88;;;;;;;;;;4937095;29;20318;-77
2022/03/05 10:08:10;;;;;;;10.75;8.90;;;;;;;;;;4934802;29;20052;-78
2022/03/05 10:10:57;;;;;;;10.93;8.00;;;;;;;;;;4931976;29;20043;-77
2022/03/05 10:13:25;;;;;;;12.05;8.60;;;;;;;;;;4934846;29;20142;-78
2022/03/05 10:15:56;;;;;;;14.52;9.05;;;;;;;;;;4935099;29;20040;-79
2022/03/05 10:18:29;;;;;;;13.63;8.60;;;;;;;;;;4931687;29;20093;-79
2022/03/05 10:20:55;;;;;;;;;;;;;;;;;;4934316;29;20409;-79
2022/03/05 10:23:21;;;;;;;13.75;9.27;;;;;;;;;;4931003;29;19933;-80
2022/03/05 10:25:49;;;;;;;11.85;8.57;;;;;;;;;;4927521;29;20048;-80
2022/03/05 10:28:17;;;;;;;14.68;9.63;;;;;;;;;;4930798;29;20059;-80
2022/03/05 10:30:45;;;;;;;12.55;9.40;;;;;;;;;;4934189;29;20054;-81
2022/03/05 10:33:25;;;;;;;11.82;8.93;;;;;;;;;;4934014;29;20044;-80
2022/03/05 10:35:51;;;;;;;13.90;9.43;;;;;;;;;;4930874;29;20067;-80
2022/03/05 10:38:17;;;;;;;13.00;9.27;;;;;;;;;;4930266;29;20052;-81
2022/03/05 10:40:43;;;;;;;12.07;8.73;;;;;;;;;;4932782;29;20059;-79
2022/03/05 10:43:09;;;;;;;12.10;8.60;;;;;;;;;;4932099;29;20130;-71
2022/03/05 10:45:49;;;;;;;12.32;9.48;;;;;;;;;;4935546;29;20087;-78
2022/03/05 10:48:22;;;;;;;13.27;9.13;;;;;;;;;;4926542;29;20051;-78
2022/03/05 10:50:54;;;;;;;13.40;9.60;;;;;;;;;;4923052;29;20047;-78
2022/03/05 10:53:34;;;;;;;13.68;9.45;;;;;;;;;;4930755;29;20068;-79
2022/03/05 10:56:19;;;;;;;13.13;8.93;;;;;;;;;;4931128;29;20052;-78
2022/03/05 10:58:56;;;;;;;11.75;8.35;;;;;;;;;;4925840;29;20071;-78
2022/03/05 11:01:22;;;;;;;12.75;9.55;;;;;;;;;;4930731;29;20176;-79
2022/03/05 11:03:49;;;;;;;13.30;9.73;;;;;;;;;;4934982;29;20058;-79
2022/03/05 11:06:15;;;;;;;13.25;9.80;;;;;;;;;;4931673;29;20080;-78
2022/03/05 11:08:41;;;;;;;13.27;9.57;;;;;;;;;;4930877;29;20055;-79
2022/03/05 11:11:08;;;;;;;12.27;8.85;;;;;;;;;;4932201;29;20055;-79
2022/03/05 11:13:34;;;;;;;13.23;9.63;;;;;;;;;;4931030;29;20052;-79
2022/03/05 11:16:01;;;;;;;12.52;9.10;;;;;;;;;;4929543;29;21702;-78
2022/03/05 11:18:28;;;;;;;11.90;9.25;;;;;;;;;;4930817;29;20440;-79
2022/03/05 11:20:54;;;;;;;12.50;9.48;;;;;;;;;;4931496;29;20079;-79
2022/03/05 11:23:20;;;;;;;14.23;9.73;;;;;;;;;;4933482;29;20063;-79
2022/03/05 11:25:47;;;;;;;13.38;10.05;;;;;;;;;;4932106;29;20051;-78
2022/03/05 11:28:18;;;;;;;14.55;10.07;;;;;;;;;;4929525;29;20043;-78
2022/03/05 11:30:45;;;;;;;13.05;9.88;;;;;;;;;;4933768;29;20036;-78
2022/03/05 11:33:12;;;;;;;11.35;9.00;;;;;;;;;;4931878;29;20047;-78
2022/03/05 11:35:43;;;;;;;14.75;8.93;;;;;;;;;;4933003;29;20059;-78
2022/03/05 11:38:29;;;;;;;13.00;9.75;;;;;;;;;;4925686;29;20059;-78
2022/03/05 11:40:55;;;;;;;11.88;9.02;;;;;;;;;;4928334;29;20048;-78
2022/03/05 11:43:22;;;;;;;12.93;10.15;;;;;;;;;;4930122;29;20071;-78
2022/03/05 11:45:49;;;;;;;13.52;9.50;;;;;;;;;;4932868;29;20047;-78
2022/03/05 11:48:24;;;;;;;13.55;9.45;;;;;;;;;;4932282;29;20046;-81
2022/03/05 11:50:51;;;;;;;11.98;9.35;;;;;;;;;;4927570;29;20051;-81
2022/03/05 11:53:17;;;;;;;12.68;9.32;;;;;;;;;;4931491;29;20060;-80
2022/03/05 11:55:45;;;;;;;13.57;9.88;;;;;;;;;;4931712;29;20044;-80
2022/03/05 11:58:14;;;;;;;13.25;9.80;;;;;;;;;;4929075;29;20131;-81
2022/03/05 12:00:49;;;;;;;12.52;9.40;;;;;;;;;;4931002;29;20444;-81
2022/03/05 12:03:34;;;;;;;13.15;10.38;;;;;;;;;;4930763;29;20060;-81
2022/03/05 12:06:02;;;;;;;12.43;9.18;;;;;;;;;;4931753;29;20082;-81
2022/03/05 12:08:27;;;;;;;12.50;9.70;;;;;;;;;;4931315;29;20042;-81
2022/03/05 12:11:13;;;;;;;12.25;9.68;;;;;;;;;;4931781;29;20047;-81
2022/03/05 12:13:42;;;;;;;12.73;9.30;;;;;;;;;;4930550;29;20056;-81
2022/03/05 12:16:14;;;;;;;13.02;8.70;;;;;;;;;;4932246;29;20163;-81
2022/03/05 12:18:41;;;;;;;12.68;9.75;;;;;;;;;;4928134;29;20052;-81
2022/03/05 12:21:07;;;;;;;11.95;9.77;;;;;;;;;;4930946;29;20080;-81
2022/03/05 12:23:35;;;;;;;15.73;10.40;;;;;;;;;;4930508;29;20043;-81
2022/03/05 12:26:03;;;;;;;13.27;10.00;;;;;;;;;;4928056;29;20488;-83
2022/03/05 12:28:37;;;;;;;13.60;10.18;;;;;;;;;;4933016;29;20624;-83
2022/03/05 12:31:03;;;;;;;13.18;10.23;;;;;;;;;;4930798;29;20487;-83
2022/03/05 12:33:33;;;;;;;12.27;9.13;;;;;;;;;;4927136;29;20048;-85
2022/03/05 12:35:59;;;;;;;12.10;9.45;;;;;;;;;;4932112;29;20131;-84
2022/03/05 12:38:25;;;;;;;12.48;9.60;;;;;;;;;;4929605;29;20143;-83
2022/03/05 12:40:51;;;;;;;12.90;9.85;;;;;;;;;;4928818;29;20052;-82
2022/03/05 12:43:17;;;;;;;12.02;9.57;;;;;;;;;;4928421;29;20051;-82
2022/03/05 12:45:44;;;;;;;12.65;9.90;;;;;;;;;;4924831;29;20428;-81
2022/03/05 12:48:22;;;;;;;12.48;10.02;;;;;;;;;;4931704;29;20455;-82
2022/03/05 12:50:49;;;;;;;12.15;9.75;;;;;;;;;;4925065;29;20059;-82
2022/03/05 12:53:16;;;;;;;12.75;10.05;;;;;;;;;;4934342;29;20035;-80
2022/03/05 12:55:44;;;;;;;13.02;10.05;;;;;;;;;;4933747;29;20146;-80
2022/03/05 12:58:14;;;;;;;13.60;9.93;;;;;;;;;;4934918;29;20058;-81
2022/03/05 13:00:41;;;;;;;14.38;10.38;;;;;;;;;;4933478;29;20039;-80
2022/03/05 13:03:07;;;;;;;12.52;10.02;;;;;;;;;;4934129;29;20054;-80
2022/03/05 13:05:34;;;;;;;13.45;9.88;;;;;;;;;;4935647;29;20043;-80
2022/03/05 13:08:00;;;;;;;13.57;10.00;;;;;;;;;;4940263;28;20035;-81
2022/03/05 13:10:26;;;;;;;13.15;10.48;;;;;;;;;;4935524;29;20074;-78
2022/03/05 13:12:54;;;;;;;11.23;9.32;;;;;;;;;;4936010;29;20448;-83
2022/03/05 13:15:24;;;;;;;12.38;9.65;;;;;;;;;;4933173;29;20078;-83
2022/03/05 13:17:50;;;;;;;12.27;9.50;;;;;;;;;;4922428;29;20043;-83
2022/03/05 13:20:17;;;;;;;12.48;9.18;;;;;;;;;;4932055;29;20043;-84
2022/03/05 13:22:45;;;;;;;11.98;9.68;;;;;;;;;;4935387;29;20172;-82
2022/03/05 13:25:11;;;;;;;11.75;8.80;;;;;;;;;;4933935;29;20059;-81
2022/03/05 13:27:37;;;;;;;11.85;10.23;;;;;;;;;;4934201;29;20043;-81
2022/03/05 13:30:08;;;;;;;11.25;9.77;;;;;;;;;;4932192;29;20087;-82
2022/03/05 13:32:43;;;;;;;12.07;9.98;;;;;;;;;;4932973;29;20082;-82
2022/03/05 13:35:12;;;;;;;11.73;9.20;;;;;;;;;;4933549;29;20411;-82
2022/03/05 13:37:40;;;;;;;11.50;8.93;;;;;;;;;;4928673;29;20075;-81
2022/03/05 13:40:08;;;;;;;11.05;9.30;;;;;;;;;;4933466;29;20056;-81
2022/03/05 13:42:35;;;;;;;10.63;9.48;;;;;;;;;;4933769;29;20451;-81
2022/03/05 13:45:01;;;;;;;13.02;8.73;;;;;;;;;;4930669;29;20047;-80
2022/03/05 13:47:27;;;;;;;11.10;8.93;;;;;;;;;;4934065;29;20186;-82
2022/03/05 13:49:59;;;;;;;10.68;8.35;;;;;;;;;;4932557;29;20626;-82
2022/03/05 13:52:26;;;;;;;9.70;8.45;;;;;;;;;;4934463;29;20062;-82
2022/03/05 13:54:52;;;;;;;10.02;8.98;;;;;;;;;;4929520;29;20047;-82
2022/03/05 13:57:32;;;;;;;9.85;8.85;;;;;;;;;;4933784;29;20100;-78
2022/03/05 14:00:14;;;;;;;10.35;9.25;;;;;;;;;;4928889;29;20056;-79
2022/03/05 14:02:41;;;;;;;10.52;8.68;;;;;;;;;;4926540;29;20123;-81
2022/03/05 14:05:11;;;;;;;10.30;9.27;;;;;;;;;;4934750;29;20508;-81
2022/03/05 14:07:38;;;;;;;10.27;8.60;;;;;;;;;;4933169;29;20048;-81
2022/03/05 14:10:05;;;;;;;10.05;8.38;;;;;;;;;;4930029;29;20542;-81
2022/03/05 14:12:31;;;;;;;10.10;9.00;;;;;;;;;;4935141;29;20039;-82
2022/03/05 14:15:00;;;;;;;9.57;8.57;;;;;;;;;;4933775;29;20127;-81
2022/03/05 14:17:29;;;;;;;11.55;9.07;;;;;;;;;;4929150;29;20055;-81
2022/03/05 14:20:07;;;;;;;9.95;8.95;;;;;;;;;;4932975;29;20044;-80
2022/03/05 14:22:41;;;;;;;9.40;8.50;;;;;;;;;;4933296;29;20112;-81
2022/03/05 14:25:11;;;;;;;8.98;8.13;;;;;;;;;;4933436;29;20488;-81
2022/03/05 14:27:37;;;;;;;9.70;8.80;;;;;;;;;;4931349;29;20052;-81
2022/03/05 14:30:03;;;;;;;10.25;9.25;;;;;;;;;;4932309;29;20075;-81
2022/03/05 14:32:30;;;;;;;9.85;8.85;;;;;;;;;;4933421;29;20058;-81
2022/03/05 14:34:56;;;;;;;10.02;8.98;;;;;;;;;;4932228;29;20039;-81
2022/03/05 14:37:22;;;;;;;9.95;8.95;;;;;;;;;;4931506;29;20043;-82
2022/03/05 14:39:48;;;;;;;9.38;8.48;;;;;;;;;;4931843;29;20062;-82